Terminal Aerodrome Forecast
Issued by NWS

Home | Current Version | Previous Version | Text Only | Print | Product List | Glossary On
Versions: 1 2 3 4 5 6 7 8 9 10 11 12 13 14
000
FTPA31 PHFO 262008 AAA
TAFHJH
TAF AMD
PHJH 262008Z 2620/2718 36011KT P6SM FEW035
     FM262200 03014G20KT P6SM FEW035 SCT060
     FM270600 05008KT P6SM FEW025 SCT050=

USA.gov is the U.S. government's official web portal to all federal, state and local government web resources and services.